createdAt,value
2022-10-18T00:01:14.090Z,13.00
2022-10-18T00:06:14.458Z,13.00
2022-10-18T00:08:42.614Z,13.00
2022-10-18T00:11:10.831Z,13.00
2022-10-18T00:13:40.439Z,13.00
2022-10-18T00:16:14.732Z,13.10
2022-10-18T00:18:43.779Z,13.10
2022-10-18T00:21:14.934Z,13.20
2022-10-18T00:23:43.383Z,13.20
2022-10-18T00:26:13.838Z,13.20
2022-10-18T00:28:44.353Z,13.30
2022-10-18T00:31:15.271Z,13.30
2022-10-18T00:33:44.374Z,13.30
2022-10-18T00:36:12.860Z,13.20
2022-10-18T00:38:41.474Z,13.20
2022-10-18T00:41:11.671Z,13.20
2022-10-18T00:43:57.308Z,13.20
2022-10-18T00:46:28.300Z,13.10
2022-10-18T00:48:57.683Z,13.10
2022-10-18T00:51:29.299Z,13.10
2022-10-18T00:53:57.748Z,13.10
2022-10-18T00:56:26.226Z,13.10
2022-10-18T00:58:55.004Z,13.10
2022-10-18T01:01:27.597Z,13.00
2022-10-18T01:03:58.192Z,13.00
2022-10-18T01:06:28.266Z,13.00
2022-10-18T01:09:12.008Z,13.00
2022-10-18T01:11:54.416Z,13.00
2022-10-18T01:14:31.371Z,13.00
2022-10-18T01:17:05.024Z,13.00
2022-10-18T01:20:20.066Z,13.00
2022-10-18T01:22:53.800Z,13.00
2022-10-18T01:25:35.374Z,13.00
2022-10-18T01:28:14.397Z,13.00
2022-10-18T01:30:58.874Z,13.00
2022-10-18T01:33:37.660Z,13.00
2022-10-18T01:36:10.397Z,13.00
2022-10-18T01:38:40.266Z,13.00
2022-10-18T01:41:13.242Z,13.10
2022-10-18T01:43:46.228Z,13.10
2022-10-18T01:46:18.940Z,13.10
2022-10-18T01:48:50.993Z,13.20
2022-10-18T01:51:20.321Z,13.20
2022-10-18T01:53:48.580Z,13.20
2022-10-18T01:56:26.134Z,13.30
2022-10-18T01:59:12.194Z,13.20
2022-10-18T02:01:52.208Z,13.30
2022-10-18T02:04:30.694Z,13.30
2022-10-18T02:07:05.037Z,13.30
2022-10-18T02:09:39.697Z,13.30
2022-10-18T02:12:13.010Z,13.30
2022-10-18T02:14:43.104Z,13.30
2022-10-18T02:17:14.143Z,13.30
2022-10-18T02:19:45.500Z,13.30
2022-10-18T02:22:15.905Z,13.30
2022-10-18T02:24:47.843Z,13.30
2022-10-18T02:27:16.599Z,13.30
2022-10-18T02:29:46.648Z,13.30
2022-10-18T02:32:21.221Z,13.30
2022-10-18T02:34:55.190Z,13.30
2022-10-18T02:37:23.891Z,13.30
2022-10-18T02:39:53.053Z,13.30
2022-10-18T02:42:21.219Z,13.30
2022-10-18T02:44:49.376Z,13.20
2022-10-18T02:47:19.065Z,13.20
2022-10-18T02:49:47.254Z,13.20
2022-10-18T02:52:15.434Z,13.20
2022-10-18T02:54:43.579Z,13.20
2022-10-18T02:57:11.725Z,13.20
2022-10-18T02:59:40.024Z,13.10
2022-10-18T03:02:08.157Z,13.10
2022-10-18T03:04:37.796Z,13.10
2022-10-18T03:07:06.134Z,13.10
2022-10-18T03:09:34.369Z,13.10
2022-10-18T03:12:02.589Z,13.00
2022-10-18T03:14:30.866Z,13.00
2022-10-18T03:16:59.116Z,13.10
2022-10-18T03:19:27.386Z,13.00
2022-10-18T03:21:57.004Z,12.90
2022-10-18T03:24:25.286Z,12.90
2022-10-18T03:26:53.437Z,12.90
2022-10-18T03:29:21.591Z,12.90
2022-10-18T03:31:49.847Z,12.90
2022-10-18T03:34:18.139Z,13.00
2022-10-18T03:36:46.325Z,12.90
2022-10-18T03:39:16.046Z,12.90
2022-10-18T03:41:44.216Z,12.90
2022-10-18T03:44:12.387Z,12.80
2022-10-18T03:46:40.569Z,12.80
2022-10-18T03:49:08.748Z,12.70
2022-10-18T03:51:36.906Z,12.70
2022-10-18T03:54:05.360Z,12.60
2022-10-18T03:56:34.968Z,12.60
2022-10-18T03:59:04.560Z,12.60
2022-10-18T04:01:32.962Z,12.60
2022-10-18T04:04:01.211Z,12.50
2022-10-18T04:06:29.376Z,12.50
2022-10-18T04:08:57.513Z,12.50
2022-10-18T04:11:25.766Z,12.50
2022-10-18T04:13:55.256Z,12.40
2022-10-18T04:16:23.683Z,12.40
2022-10-18T04:18:51.951Z,12.40
2022-10-18T04:21:20.248Z,12.40
2022-10-18T04:23:49.009Z,12.40
2022-10-18T04:26:17.638Z,12.40
2022-10-18T04:28:46.304Z,12.30
2022-10-18T04:31:15.898Z,12.30
2022-10-18T04:33:44.045Z,12.30
2022-10-18T04:36:12.189Z,12.20
2022-10-18T04:38:40.328Z,12.30
2022-10-18T04:41:08.475Z,12.20
2022-10-18T04:43:36.746Z,12.20
2022-10-18T04:46:05.030Z,12.20
2022-10-18T04:48:34.544Z,12.20
2022-10-18T04:51:02.717Z,12.10
2022-10-18T04:53:30.862Z,12.10
2022-10-18T04:55:59.026Z,12.10
2022-10-18T04:58:27.322Z,12.10
2022-10-18T05:00:55.529Z,12.10
2022-10-18T05:03:23.731Z,12.10
2022-10-18T05:06:01.871Z,12.10
2022-10-18T05:08:31.954Z,12.10
2022-10-18T05:11:00.887Z,12.00
2022-10-18T05:13:29.460Z,12.00
2022-10-18T05:15:59.454Z,12.00
2022-10-18T05:18:27.790Z,12.00
2022-10-18T05:20:57.343Z,11.90
2022-10-18T05:23:25.527Z,11.90
2022-10-18T05:25:53.785Z,12.00
2022-10-18T05:31:12.510Z,12.00
2022-10-18T05:33:40.658Z,11.90
2022-10-18T05:36:10.724Z,11.90
2022-10-18T05:38:42.280Z,12.00
2022-10-18T05:41:10.773Z,11.90
2022-10-18T05:43:39.105Z,11.90
2022-10-18T05:46:13.580Z,11.90
2022-10-18T05:48:43.334Z,11.90
2022-10-18T05:51:12.976Z,11.90
2022-10-18T05:53:41.125Z,11.90
2022-10-18T05:56:11.860Z,11.90
2022-10-18T05:58:40.732Z,11.90
2022-10-18T06:01:10.148Z,12.00
2022-10-18T06:03:38.578Z,12.00
2022-10-18T06:06:09.343Z,12.00
2022-10-18T06:08:39.873Z,12.10
2022-10-18T06:11:08.996Z,12.10
2022-10-18T06:13:41.333Z,12.20
2022-10-18T06:16:10.167Z,12.20
2022-10-18T06:18:38.580Z,12.20
2022-10-18T06:21:07.082Z,12.20
2022-10-18T06:23:35.877Z,12.30
2022-10-18T06:26:07.275Z,12.30
2022-10-18T06:28:36.661Z,12.40
2022-10-18T06:31:06.126Z,12.40
2022-10-18T06:33:35.769Z,12.40
2022-10-18T06:36:06.737Z,12.40
2022-10-18T06:38:35.802Z,12.50
2022-10-18T06:41:06.453Z,12.50
2022-10-18T06:43:34.694Z,12.60
2022-10-18T06:46:04.782Z,12.70
2022-10-18T06:48:33.000Z,12.70
2022-10-18T06:51:03.308Z,12.80
2022-10-18T06:53:32.973Z,12.80
2022-10-18T06:56:02.119Z,12.90
2022-10-18T06:58:32.442Z,12.90
2022-10-18T07:01:00.754Z,12.90
2022-10-18T07:03:29.480Z,13.00
2022-10-18T07:06:02.123Z,13.00
2022-10-18T07:08:30.931Z,13.10
2022-10-18T07:10:59.399Z,13.10
2022-10-18T07:13:33.022Z,13.20
2022-10-18T07:16:05.740Z,13.20
2022-10-18T07:18:35.153Z,13.30
2022-10-18T07:21:04.807Z,13.30
2022-10-18T07:23:34.433Z,13.40
2022-10-18T07:26:02.863Z,13.40
2022-10-18T07:28:31.109Z,13.40
2022-10-18T07:31:06.172Z,13.40
2022-10-18T07:33:36.025Z,13.50
2022-10-18T07:36:05.108Z,13.50
2022-10-18T07:38:33.608Z,13.60
2022-10-18T07:41:02.466Z,13.60
2022-10-18T07:43:31.145Z,13.60
2022-10-18T07:46:00.885Z,13.60
2022-10-18T07:48:29.467Z,13.70
2022-10-18T07:51:01.672Z,13.70
2022-10-18T07:53:30.373Z,13.80
2022-10-18T07:56:01.492Z,13.80
2022-10-18T07:58:32.795Z,13.80
2022-10-18T08:01:04.373Z,13.90
2022-10-18T08:03:32.710Z,13.90
2022-10-18T08:06:05.720Z,13.90
2022-10-18T08:08:33.867Z,13.90
2022-10-18T08:11:04.465Z,14.00
2022-10-18T08:13:32.926Z,14.10
2022-10-18T08:16:01.651Z,14.20
2022-10-18T08:18:30.289Z,14.30
2022-10-18T08:21:02.055Z,14.40
2022-10-18T08:23:30.231Z,14.50
2022-10-18T08:26:01.684Z,14.70
2022-10-18T08:28:29.954Z,14.80
2022-10-18T08:30:58.190Z,15.00
2022-10-18T08:33:26.389Z,15.10
2022-10-18T08:35:58.425Z,15.30
2022-10-18T08:38:30.282Z,15.50
2022-10-18T08:41:00.517Z,15.70
2022-10-18T08:46:04.662Z,16.00
2022-10-18T08:48:36.633Z,16.10
2022-10-18T08:51:06.760Z,16.30
2022-10-18T08:53:45.370Z,16.40
2022-10-18T08:56:15.625Z,16.40
2022-10-18T08:58:44.981Z,16.50
2022-10-18T09:01:23.586Z,16.50
2022-10-18T09:04:05.050Z,16.60
2022-10-18T09:06:40.253Z,16.70
2022-10-18T09:09:25.718Z,16.80
2022-10-18T09:12:09.630Z,16.90
2022-10-18T09:15:10.127Z,17.00
2022-10-18T09:17:48.936Z,17.00
2022-10-18T09:20:23.954Z,17.00
2022-10-18T09:22:57.736Z,17.00
2022-10-18T09:25:34.310Z,17.00
2022-10-18T09:28:16.895Z,17.00
2022-10-18T09:30:59.801Z,17.00
2022-10-18T09:33:38.327Z,17.10
2022-10-18T09:36:09.522Z,17.20
2022-10-18T09:38:44.440Z,17.30
2022-10-18T09:41:19.432Z,17.40
2022-10-18T09:43:55.585Z,17.30
2022-10-18T09:46:27.838Z,17.20
2022-10-18T09:49:00.545Z,17.20
2022-10-18T09:51:34.758Z,17.10
2022-10-18T09:54:12.107Z,17.10
2022-10-18T09:56:47.757Z,17.20
2022-10-18T09:59:32.965Z,17.30
2022-10-18T10:02:01.265Z,17.40
2022-10-18T10:04:29.677Z,17.50
2022-10-18T10:07:00.602Z,17.50
2022-10-18T10:09:30.798Z,17.60
2022-10-18T10:12:00.448Z,17.60
2022-10-18T10:14:30.823Z,17.70
2022-10-18T10:17:02.365Z,17.80
2022-10-18T10:19:34.166Z,17.90
2022-10-18T10:22:06.825Z,18.00
2022-10-18T10:24:49.575Z,18.10
2022-10-18T10:27:31.917Z,18.10
2022-10-18T10:30:05.773Z,18.10
2022-10-18T10:32:47.629Z,18.10
2022-10-18T10:35:41.343Z,18.20
2022-10-18T10:38:25.424Z,18.40
2022-10-18T10:40:53.896Z,18.60
2022-10-18T10:43:42.546Z,18.70
2022-10-18T10:46:13.080Z,18.70
2022-10-18T10:48:48.236Z,18.60
2022-10-18T10:51:19.570Z,18.60
2022-10-18T10:53:52.303Z,18.60
2022-10-18T10:56:26.684Z,18.50
2022-10-18T10:58:59.009Z,18.50
2022-10-18T11:01:32.631Z,18.50
2022-10-18T11:04:03.403Z,18.50
2022-10-18T11:06:53.324Z,18.50
2022-10-18T11:09:45.233Z,18.60
2022-10-18T11:12:34.484Z,18.70
2022-10-18T11:15:21.672Z,18.70
2022-10-18T11:18:03.670Z,18.80
2022-10-18T11:20:36.544Z,18.80
2022-10-18T11:23:08.383Z,19.00
2022-10-18T11:25:55.724Z,19.10
2022-10-18T11:28:39.648Z,19.30
2022-10-18T11:31:20.012Z,19.50
2022-10-18T11:34:09.097Z,19.40
2022-10-18T11:36:54.999Z,19.40
2022-10-18T11:39:47.732Z,19.40
2022-10-18T11:42:27.676Z,19.40
2022-10-18T11:45:05.074Z,19.40
2022-10-18T11:47:41.997Z,19.50
2022-10-18T11:50:20.575Z,19.50
2022-10-18T11:53:01.383Z,19.50
2022-10-18T11:55:50.237Z,19.50
2022-10-18T11:58:37.047Z,19.40
2022-10-18T12:01:12.942Z,19.20
2022-10-18T12:03:57.528Z,19.10
2022-10-18T12:06:30.766Z,19.10
2022-10-18T12:09:02.661Z,19.10
2022-10-18T12:11:33.667Z,19.10
2022-10-18T12:14:04.068Z,19.00
2022-10-18T12:16:50.407Z,18.90
2022-10-18T12:19:26.673Z,18.80
2022-10-18T12:21:58.209Z,18.70
2022-10-18T12:24:30.049Z,18.60
2022-10-18T12:27:01.025Z,18.60
2022-10-18T12:29:36.800Z,18.60
2022-10-18T12:32:11.630Z,18.60
2022-10-18T12:34:45.001Z,18.70
2022-10-18T12:37:28.057Z,18.70
2022-10-18T12:40:18.766Z,18.80
2022-10-18T12:42:51.426Z,18.80
2022-10-18T12:45:26.145Z,18.80
2022-10-18T12:47:55.400Z,18.80
2022-10-18T12:50:44.043Z,18.80
2022-10-18T12:53:19.944Z,18.70
2022-10-18T12:55:51.630Z,18.70
2022-10-18T12:58:37.870Z,18.60
2022-10-18T13:01:08.118Z,18.60
2022-10-18T13:03:59.435Z,18.50
2022-10-18T13:07:03.811Z,18.50
2022-10-18T13:09:35.882Z,18.40
2022-10-18T13:12:57.891Z,18.30
2022-10-18T13:15:40.097Z,18.20
2022-10-18T13:18:19.597Z,18.10
2022-10-18T13:20:58.517Z,18.00
2022-10-18T13:23:38.767Z,17.90
2022-10-18T13:26:19.953Z,17.80
2022-10-18T13:28:55.301Z,17.80
2022-10-18T13:31:31.230Z,17.70
2022-10-18T13:34:27.813Z,17.60
2022-10-18T13:37:02.209Z,17.60
2022-10-18T13:39:31.757Z,17.50
2022-10-18T13:42:31.698Z,17.40
2022-10-18T13:45:37.849Z,17.40
2022-10-18T13:48:44.008Z,17.30
2022-10-18T13:51:43.683Z,17.30
2022-10-18T13:54:40.724Z,17.20
2022-10-18T13:57:18.900Z,17.20
2022-10-18T14:00:05.288Z,17.10
2022-10-18T14:02:59.396Z,17.10
2022-10-18T14:05:57.928Z,17.00
2022-10-18T14:08:30.724Z,17.00
2022-10-18T14:11:06.316Z,16.90
2022-10-18T14:13:46.327Z,16.90
2022-10-18T14:16:31.617Z,16.90
2022-10-18T14:19:09.491Z,16.80
2022-10-18T14:21:41.198Z,16.80
2022-10-18T14:24:20.397Z,16.80
2022-10-18T14:26:48.855Z,16.70
2022-10-18T14:29:20.177Z,16.70
2022-10-18T14:31:56.360Z,16.60
2022-10-18T14:34:24.547Z,16.60
2022-10-18T14:36:53.070Z,16.50
2022-10-18T14:39:23.294Z,16.50
2022-10-18T14:41:53.197Z,16.40
2022-10-18T14:44:25.839Z,16.40
2022-10-18T14:47:01.947Z,16.30
2022-10-18T14:49:31.173Z,16.30
2022-10-18T14:52:01.448Z,16.20
2022-10-18T14:54:36.484Z,16.20
2022-10-18T14:57:05.908Z,16.10
2022-10-18T14:59:40.997Z,15.90
2022-10-18T15:02:17.251Z,15.90
2022-10-18T15:04:46.521Z,15.80
2022-10-18T15:07:17.793Z,15.70
2022-10-18T15:09:46.785Z,15.60
2022-10-18T15:12:16.528Z,15.50
2022-10-18T15:14:45.651Z,15.40
2022-10-18T15:17:21.619Z,15.30
2022-10-18T15:20:01.829Z,15.10
2022-10-18T15:22:34.394Z,15.10
2022-10-18T15:25:29.324Z,15.00
2022-10-18T15:28:01.677Z,14.90
2022-10-18T15:30:37.651Z,14.90
2022-10-18T15:33:10.149Z,14.90
2022-10-18T15:35:42.476Z,14.90
2022-10-18T15:38:16.790Z,14.80
2022-10-18T15:40:45.321Z,14.80
2022-10-18T15:43:40.183Z,14.70
2022-10-18T15:46:29.364Z,14.70
2022-10-18T15:49:17.545Z,14.60
2022-10-18T15:51:50.125Z,14.60
2022-10-18T15:54:31.341Z,14.50
2022-10-18T15:56:59.896Z,14.50
2022-10-18T15:59:32.145Z,14.50
2022-10-18T16:02:32.999Z,14.50
2022-10-18T16:05:29.821Z,14.40
2022-10-18T16:08:26.539Z,14.40
2022-10-18T16:11:18.917Z,14.20
2022-10-18T16:46:10.159Z,14.00
2022-10-18T16:49:37.084Z,14.00
2022-10-18T16:56:05.140Z,14.00
2022-10-18T16:58:44.345Z,14.00
2022-10-18T17:01:15.338Z,14.00
2022-10-18T17:03:52.103Z,14.00
2022-10-18T17:06:22.160Z,14.00
2022-10-18T17:08:50.931Z,14.00
2022-10-18T17:11:33.538Z,14.00
2022-10-18T17:14:03.998Z,14.00
2022-10-18T17:16:36.552Z,14.00
2022-10-18T17:19:08.470Z,13.90
2022-10-18T17:25:07.262Z,13.70
2022-10-18T17:27:56.231Z,13.60
2022-10-18T17:30:24.675Z,13.50
2022-10-18T17:36:51.641Z,13.40
2022-10-18T17:39:43.322Z,13.30
2022-10-18T17:42:14.154Z,13.30
2022-10-18T17:45:36.353Z,13.30
2022-10-18T17:48:07.497Z,13.10
2022-10-18T17:51:38.131Z,13.20
2022-10-18T17:54:08.729Z,13.10
2022-10-18T17:56:37.330Z,13.10
2022-10-18T17:59:07.320Z,13.10
2022-10-18T18:01:48.564Z,13.10
2022-10-18T18:04:17.226Z,13.10
2022-10-18T18:06:45.777Z,13.10
2022-10-18T18:09:17.410Z,13.10
2022-10-18T18:11:56.350Z,12.70
2022-10-18T18:14:33.462Z,13.00
2022-10-18T18:17:03.298Z,12.90
2022-10-18T18:19:32.223Z,12.90
2022-10-18T18:22:00.515Z,12.90
2022-10-18T18:24:30.238Z,12.90
2022-10-18T18:26:58.496Z,12.90
2022-10-18T18:29:29.324Z,12.90
2022-10-18T18:31:59.343Z,12.90
2022-10-18T18:34:27.768Z,12.90
2022-10-18T18:36:56.434Z,12.90
2022-10-18T18:39:26.174Z,12.80
2022-10-18T18:41:55.872Z,12.80
2022-10-18T18:44:25.184Z,12.80
2022-10-18T18:46:53.380Z,12.80
2022-10-18T18:49:21.731Z,12.80
2022-10-18T18:51:52.875Z,12.80
2022-10-18T18:54:22.136Z,12.80
2022-10-18T18:56:50.372Z,12.80
2022-10-18T18:59:32.228Z,12.80
2022-10-18T19:02:00.629Z,12.70
2022-10-18T19:04:29.382Z,12.70
2022-10-18T19:06:57.576Z,12.70
2022-10-18T19:09:39.140Z,12.70
2022-10-18T19:12:20.532Z,12.70
2022-10-18T19:14:51.331Z,12.70
2022-10-18T19:17:21.742Z,12.70
2022-10-18T19:19:52.859Z,12.70
2022-10-18T19:22:21.186Z,12.60
2022-10-18T19:28:40.189Z,12.60
2022-10-18T19:31:10.395Z,12.70
2022-10-18T19:33:48.149Z,12.60
2022-10-18T19:36:17.110Z,12.60
2022-10-18T19:38:45.622Z,12.60
2022-10-18T19:43:54.071Z,12.70
2022-10-18T19:46:24.042Z,12.70
2022-10-18T19:48:54.172Z,12.70
2022-10-18T19:52:14.676Z,12.70
2022-10-18T19:58:14.059Z,12.70
2022-10-18T20:00:42.621Z,12.70
2022-10-18T20:03:36.548Z,12.70
2022-10-18T20:06:17.416Z,12.70
2022-10-18T20:08:56.798Z,12.70
2022-10-18T20:11:27.148Z,12.70
2022-10-18T20:14:07.709Z,12.70
2022-10-18T20:16:36.518Z,12.70
2022-10-18T20:19:28.085Z,12.60
2022-10-18T20:21:59.665Z,12.60
2022-10-18T20:24:55.925Z,12.60
2022-10-18T20:27:24.688Z,12.60
2022-10-18T20:29:53.175Z,12.50
2022-10-18T20:32:21.399Z,12.50
2022-10-18T20:35:09.669Z,12.50
2022-10-18T20:37:38.496Z,12.50
2022-10-18T20:40:07.528Z,12.50
2022-10-18T20:42:35.931Z,12.60
2022-10-18T20:45:12.740Z,12.60
2022-10-18T20:47:41.186Z,12.60
2022-10-18T20:50:12.300Z,12.60
2022-10-18T20:52:51.647Z,12.60
2022-10-18T20:55:30.573Z,12.60
2022-10-18T20:57:59.992Z,12.60
2022-10-18T21:00:28.605Z,12.60
2022-10-18T21:03:00.938Z,12.60
2022-10-18T21:05:32.334Z,12.50
2022-10-18T21:08:01.437Z,12.50
2022-10-18T21:10:29.805Z,12.50
2022-10-18T21:13:08.046Z,12.50
2022-10-18T21:15:36.485Z,12.50
2022-10-18T21:18:05.224Z,12.50
2022-10-18T21:20:34.919Z,12.50
2022-10-18T21:23:03.236Z,12.50
2022-10-18T21:25:31.522Z,12.50
2022-10-18T21:28:02.096Z,12.40
2022-10-18T21:30:30.381Z,12.40
2022-10-18T21:32:58.608Z,12.40
2022-10-18T21:35:37.702Z,12.40
2022-10-18T21:38:07.676Z,12.40
2022-10-18T21:40:39.621Z,12.50
2022-10-18T21:43:10.586Z,12.50
2022-10-18T21:45:47.058Z,12.50
2022-10-18T21:48:15.375Z,12.50
2022-10-18T21:50:45.027Z,12.50
2022-10-18T21:53:16.035Z,12.50
2022-10-18T21:55:44.302Z,12.50
2022-10-18T21:58:14.475Z,12.50
2022-10-18T22:00:42.691Z,12.50
2022-10-18T22:03:12.206Z,12.50
2022-10-18T22:05:43.374Z,12.40
2022-10-18T22:08:13.020Z,12.40
2022-10-18T22:10:41.197Z,12.50
2022-10-18T22:13:09.424Z,12.40
2022-10-18T22:15:37.711Z,12.40
2022-10-18T22:18:05.916Z,12.50
2022-10-18T22:20:34.077Z,12.40
2022-10-18T22:23:02.767Z,12.40
2022-10-18T22:25:32.292Z,12.30
2022-10-18T22:28:00.491Z,12.30
2022-10-18T22:30:28.760Z,12.30
2022-10-18T22:32:58.993Z,12.30
2022-10-18T22:35:27.198Z,12.20
2022-10-18T22:37:55.572Z,12.20
2022-10-18T22:40:23.724Z,12.20
2022-10-18T22:42:54.500Z,12.20
2022-10-18T22:45:22.702Z,12.20
2022-10-18T22:47:50.874Z,12.10
2022-10-18T22:50:19.216Z,12.00
2022-10-18T22:52:48.955Z,12.00
2022-10-18T22:55:18.784Z,12.00
2022-10-18T22:57:46.923Z,12.00
2022-10-18T23:00:17.115Z,11.90
2022-10-18T23:02:45.342Z,11.90
2022-10-18T23:05:13.601Z,11.90
2022-10-18T23:07:41.770Z,12.00
2022-10-18T23:10:10.454Z,12.00
2022-10-18T23:12:38.712Z,12.10
2022-10-18T23:15:07.771Z,12.10
2022-10-18T23:17:37.560Z,12.10
2022-10-18T23:20:06.433Z,12.00
2022-10-18T23:22:34.803Z,12.00
2022-10-18T23:25:03.217Z,12.00
2022-10-18T23:27:31.391Z,12.00
2022-10-18T23:29:59.643Z,12.00
2022-10-18T23:32:28.497Z,11.90
2022-10-18T23:34:58.195Z,11.90
2022-10-18T23:37:26.513Z,11.90
2022-10-18T23:39:57.623Z,11.80
2022-10-18T23:42:25.813Z,11.70
2022-10-18T23:44:53.978Z,11.70
2022-10-18T23:47:22.259Z,11.60
2022-10-18T23:49:50.413Z,11.60
2022-10-18T23:52:20.077Z,11.50
2022-10-18T23:54:48.797Z,11.40
2022-10-18T23:57:16.992Z,11.40
2022-10-18T23:59:45.233Z,11.40
